createdAt,value
2023-03-24T00:02:29.668Z,5.91
2023-03-24T00:05:22.547Z,5.88
2023-03-24T00:08:10.585Z,5.60
2023-03-24T00:11:03.591Z,5.94
2023-03-24T00:13:51.354Z,5.92
2023-03-24T00:16:42.935Z,5.63
2023-03-24T00:19:30.837Z,5.84
2023-03-24T00:22:21.566Z,5.82
2023-03-24T00:25:11.362Z,5.80
2023-03-24T00:28:03.282Z,5.70
2023-03-24T00:30:52.415Z,5.51
2023-03-24T00:33:40.781Z,5.51
2023-03-24T00:36:29.749Z,5.51
2023-03-24T00:39:20.975Z,5.49
2023-03-24T00:42:09.363Z,5.49
2023-03-24T00:44:57.069Z,5.35
2023-03-24T00:47:45.081Z,5.34
2023-03-24T00:50:33.821Z,5.32
2023-03-24T00:53:23.528Z,5.10
2023-03-24T00:56:12.013Z,4.97
2023-03-24T00:59:02.581Z,4.88
2023-03-24T01:01:50.398Z,4.76
2023-03-24T01:04:41.412Z,4.78
2023-03-24T01:07:32.819Z,4.77
2023-03-24T01:10:26.503Z,4.79
2023-03-24T01:13:14.696Z,4.61
2023-03-24T01:16:03.456Z,4.46
2023-03-24T01:18:52.885Z,4.66
2023-03-24T01:21:42.579Z,4.54
2023-03-24T01:24:31.482Z,4.53
2023-03-24T01:27:19.349Z,4.45
2023-03-24T01:30:08.244Z,4.54
2023-03-24T01:32:56.668Z,4.55
2023-03-24T01:35:44.573Z,4.47
2023-03-24T01:38:32.482Z,4.44
2023-03-24T01:41:20.330Z,4.44
2023-03-24T01:44:34.616Z,4.57
2023-03-24T01:47:22.391Z,4.69
2023-03-24T01:50:10.276Z,4.70
2023-03-24T01:52:58.876Z,4.73
2023-03-24T01:55:48.536Z,4.41
2023-03-24T01:58:46.152Z,4.37
2023-03-24T02:01:46.205Z,4.69
2023-03-24T02:05:01.923Z,4.67
2023-03-24T02:08:16.965Z,4.61
2023-03-24T02:11:05.005Z,4.44
2023-03-24T02:14:02.264Z,4.34
2023-03-24T02:16:58.785Z,4.27
2023-03-24T02:20:26.060Z,4.32
2023-03-24T02:23:22.522Z,4.32
2023-03-24T02:26:25.240Z,4.35
2023-03-24T02:29:40.918Z,4.19
2023-03-24T02:32:58.462Z,4.42
2023-03-24T02:36:23.777Z,4.41
2023-03-24T02:39:49.007Z,4.46
2023-03-24T02:42:57.325Z,4.46
2023-03-24T02:45:50.942Z,4.46
2023-03-24T02:49:05.229Z,4.28
2023-03-24T02:52:12.977Z,4.22
2023-03-24T02:55:12.740Z,4.17
2023-03-24T02:59:08.364Z,4.10
2023-03-24T03:02:08.664Z,3.94
2023-03-24T03:05:14.100Z,4.16
2023-03-24T03:08:05.090Z,3.87
2023-03-24T03:10:54.899Z,3.93
2023-03-24T03:13:54.558Z,3.83
2023-03-24T03:17:00.219Z,3.67
2023-03-24T03:19:55.797Z,3.82
2023-03-24T03:23:12.023Z,3.81
2023-03-24T03:26:04.858Z,3.75
2023-03-24T03:28:58.350Z,3.77
2023-03-24T03:31:59.932Z,3.89
2023-03-24T03:35:19.609Z,3.76
2023-03-24T03:38:37.375Z,3.72
2023-03-24T03:41:25.249Z,3.53
2023-03-24T03:44:12.973Z,3.78
2023-03-24T03:47:01.343Z,3.72
2023-03-24T03:49:59.331Z,3.59
2023-03-24T03:52:47.057Z,3.71
2023-03-24T03:55:35.761Z,3.67
2023-03-24T03:58:24.852Z,3.54
2023-03-24T04:01:20.362Z,3.58
2023-03-24T04:05:07.932Z,3.52
2023-03-24T04:08:31.805Z,3.49
2023-03-24T04:11:46.523Z,3.44
2023-03-24T04:15:12.113Z,3.50
2023-03-24T04:18:45.859Z,3.21
2023-03-24T04:21:48.889Z,3.39
2023-03-24T04:24:57.402Z,3.35
2023-03-24T04:28:03.808Z,3.36
2023-03-24T04:31:30.335Z,3.29
2023-03-24T04:34:26.348Z,3.15
2023-03-24T04:37:19.816Z,3.20
2023-03-24T04:40:24.509Z,3.27
2023-03-24T04:43:20.484Z,3.41
2023-03-24T04:46:09.675Z,3.42
2023-03-24T04:49:12.142Z,3.46
2023-03-24T04:52:00.777Z,3.37
2023-03-24T04:54:55.468Z,3.33
2023-03-24T04:57:43.590Z,3.34
2023-03-24T05:00:33.796Z,3.52
2023-03-24T05:03:21.735Z,3.49
2023-03-24T05:06:13.202Z,3.59
2023-03-24T05:09:01.006Z,3.59
2023-03-24T05:11:51.333Z,3.71
2023-03-24T05:14:40.122Z,3.94
2023-03-24T05:17:28.347Z,4.94
2023-03-24T05:20:16.838Z,6.08
2023-03-24T05:23:09.371Z,6.81
2023-03-24T05:25:57.210Z,7.50
2023-03-24T05:28:46.822Z,7.42
2023-03-24T05:31:34.666Z,7.95
2023-03-24T05:34:35.021Z,8.56
2023-03-24T05:37:34.602Z,8.78
2023-03-24T05:40:23.841Z,9.09
2023-03-24T05:43:37.947Z,9.78
2023-03-24T05:46:34.333Z,10.20
2023-03-24T05:49:24.619Z,10.88
2023-03-24T05:52:16.532Z,10.83
2023-03-24T05:55:07.828Z,10.94
2023-03-24T05:57:56.926Z,11.65
2023-03-24T06:01:10.727Z,12.25
2023-03-24T06:03:59.996Z,12.34
2023-03-24T06:06:47.824Z,11.47
2023-03-24T06:09:42.702Z,10.96
2023-03-24T06:12:34.449Z,11.04
2023-03-24T06:15:28.190Z,11.07
2023-03-24T06:18:24.448Z,11.98
2023-03-24T06:21:12.257Z,12.69
2023-03-24T06:24:03.471Z,12.95
2023-03-24T06:26:52.760Z,12.24
2023-03-24T06:29:44.249Z,12.02
2023-03-24T06:32:33.877Z,12.08
2023-03-24T06:35:21.665Z,12.32
2023-03-24T06:38:19.086Z,12.19
2023-03-24T06:41:07.248Z,11.43
2023-03-24T06:43:55.660Z,11.10
2023-03-24T06:46:43.797Z,12.42
2023-03-24T06:49:32.393Z,12.72
2023-03-24T06:52:20.136Z,13.21
2023-03-24T06:55:08.579Z,13.05
2023-03-24T06:57:56.446Z,13.07
2023-03-24T07:01:17.402Z,13.44
2023-03-24T07:04:17.392Z,13.00
2023-03-24T07:08:06.615Z,13.79
2023-03-24T07:10:54.225Z,13.96
2023-03-24T07:13:42.176Z,13.92
2023-03-24T07:16:34.337Z,13.60
2023-03-24T07:19:41.940Z,13.98
2023-03-24T07:22:49.875Z,14.37
2023-03-24T07:25:54.799Z,14.33
2023-03-24T07:29:02.717Z,14.33
2023-03-24T07:31:59.036Z,15.10
2023-03-24T07:34:48.513Z,15.10
2023-03-24T07:37:37.890Z,15.80
2023-03-24T07:40:25.952Z,15.26
2023-03-24T07:43:13.722Z,15.62
2023-03-24T07:46:17.364Z,15.88
2023-03-24T07:49:18.111Z,16.15
2023-03-24T07:52:14.348Z,16.15
2023-03-24T07:55:07.213Z,16.37
2023-03-24T07:58:18.776Z,17.24
2023-03-24T08:01:21.833Z,17.58
2023-03-24T08:04:14.410Z,17.43
2023-03-24T08:07:20.278Z,17.72
2023-03-24T08:10:09.369Z,17.97
2023-03-24T08:13:00.793Z,17.86
2023-03-24T08:15:49.228Z,18.17
2023-03-24T08:18:36.949Z,18.19
2023-03-24T08:21:25.968Z,18.39
2023-03-24T08:24:13.723Z,19.24
2023-03-24T08:27:06.592Z,20.28
2023-03-24T08:29:54.415Z,19.52
2023-03-24T08:32:47.817Z,19.62
2023-03-24T08:35:39.394Z,19.37
2023-03-24T08:38:31.956Z,20.08
2023-03-24T08:41:19.911Z,19.53
2023-03-24T08:44:07.875Z,19.60
2023-03-24T08:46:55.596Z,19.39
2023-03-24T08:49:43.341Z,19.64
2023-03-24T08:52:30.982Z,19.92
2023-03-24T08:55:20.000Z,19.50
2023-03-24T08:58:08.638Z,19.70
2023-03-24T09:00:56.418Z,20.38
2023-03-24T09:03:44.990Z,21.04
2023-03-24T09:06:33.053Z,21.33
2023-03-24T09:09:20.932Z,21.63
2023-03-24T09:12:10.999Z,21.66
2023-03-24T09:14:59.007Z,20.34
2023-03-24T09:17:48.193Z,20.80
2023-03-24T09:20:36.346Z,20.72
2023-03-24T09:23:24.293Z,19.91
2023-03-24T09:26:12.055Z,20.23
2023-03-24T09:29:00.268Z,20.76
2023-03-24T09:31:47.960Z,20.62
2023-03-24T09:34:38.504Z,20.06
2023-03-24T09:37:30.011Z,21.03
2023-03-24T09:40:29.341Z,20.60
2023-03-24T09:43:38.967Z,21.70
2023-03-24T09:46:37.543Z,20.70
2023-03-24T09:49:30.750Z,21.20
2023-03-24T09:52:25.290Z,21.94
2023-03-24T09:55:19.783Z,21.81
2023-03-24T09:58:09.352Z,21.89
2023-03-24T10:00:57.675Z,21.78
2023-03-24T10:03:47.195Z,21.49
2023-03-24T10:06:42.425Z,21.41
2023-03-24T10:09:33.934Z,22.14
2023-03-24T10:12:50.684Z,21.86
2023-03-24T10:15:47.768Z,20.61
2023-03-24T10:18:44.219Z,20.61
2023-03-24T10:21:36.583Z,21.26
2023-03-24T10:24:44.859Z,21.48
2023-03-24T10:27:42.674Z,21.49
2023-03-24T10:30:34.475Z,21.50
2023-03-24T10:33:22.079Z,22.38
2023-03-24T10:36:21.298Z,22.69
2023-03-24T10:39:19.949Z,21.76
2023-03-24T10:42:18.786Z,21.13
2023-03-24T10:45:12.002Z,21.57
2023-03-24T10:48:01.939Z,21.90
2023-03-24T10:50:49.845Z,21.85
2023-03-24T10:53:37.799Z,22.16
2023-03-24T10:56:40.697Z,22.45
2023-03-24T10:59:57.981Z,21.60
2023-03-24T11:03:07.571Z,22.81
2023-03-24T11:06:01.575Z,23.07
2023-03-24T11:09:11.936Z,22.92
2023-03-24T11:12:04.400Z,22.32
2023-03-24T11:14:54.408Z,22.46
2023-03-24T11:17:42.733Z,22.88
2023-03-24T11:20:36.736Z,22.97
2023-03-24T11:23:32.061Z,23.20
2023-03-24T11:26:23.505Z,23.56
2023-03-24T11:29:18.648Z,22.92
2023-03-24T11:32:16.811Z,22.73
2023-03-24T11:35:17.988Z,22.94
2023-03-24T11:38:08.204Z,22.26
2023-03-24T11:41:05.566Z,22.48
2023-03-24T11:44:17.639Z,22.51
2023-03-24T11:47:09.093Z,22.45
2023-03-24T11:50:19.141Z,21.75
2023-03-24T11:53:20.197Z,22.20
2023-03-24T11:56:37.888Z,22.06
2023-03-24T11:59:44.119Z,22.52
2023-03-24T12:02:43.758Z,22.44
2023-03-24T12:05:42.534Z,22.65
2023-03-24T12:08:47.339Z,22.48
2023-03-24T12:11:53.624Z,22.66
2023-03-24T12:14:48.748Z,22.73
2023-03-24T12:17:42.728Z,22.66
2023-03-24T12:21:04.906Z,22.25
2023-03-24T12:24:31.437Z,22.34
2023-03-24T12:27:52.681Z,22.37
2023-03-24T12:31:17.391Z,22.39
2023-03-24T12:34:42.782Z,21.91
2023-03-24T12:37:39.348Z,22.52
2023-03-24T12:40:47.770Z,22.67
2023-03-24T12:43:53.491Z,22.70
2023-03-24T12:47:00.995Z,21.70
2023-03-24T12:50:00.505Z,21.69
2023-03-24T12:53:06.787Z,22.05
2023-03-24T12:56:14.474Z,22.24
2023-03-24T12:59:04.290Z,22.16
2023-03-24T13:02:13.284Z,22.12
2023-03-24T13:05:07.761Z,22.17
2023-03-24T13:07:59.425Z,22.17
2023-03-24T13:10:48.851Z,22.17
2023-03-24T13:13:44.801Z,22.30
2023-03-24T13:16:37.115Z,22.35
2023-03-24T13:19:26.288Z,22.43
2023-03-24T13:22:18.705Z,22.46
2023-03-24T13:25:22.806Z,22.49
2023-03-24T13:28:18.625Z,22.19
2023-03-24T13:31:09.792Z,22.21
2023-03-24T13:34:01.057Z,22.10
2023-03-24T13:37:00.410Z,21.88
2023-03-24T13:39:58.355Z,21.72
2023-03-24T13:43:07.176Z,21.61
2023-03-24T13:46:07.815Z,21.62
2023-03-24T13:48:57.442Z,21.90
2023-03-24T13:51:47.030Z,21.95
2023-03-24T13:54:37.974Z,22.02
2023-03-24T13:57:26.857Z,21.56
2023-03-24T14:00:21.578Z,21.85
2023-03-24T14:03:31.653Z,21.77
2023-03-24T14:06:45.556Z,21.69
2023-03-24T14:09:33.591Z,21.50
2023-03-24T14:12:21.566Z,21.48
2023-03-24T14:15:14.318Z,21.56
2023-03-24T14:18:25.325Z,21.01
2023-03-24T14:21:13.580Z,21.12
2023-03-24T14:24:04.366Z,20.94
2023-03-24T14:26:52.951Z,20.85
2023-03-24T14:29:52.680Z,20.86
2023-03-24T14:32:50.286Z,20.68
2023-03-24T14:36:06.705Z,20.69
2023-03-24T14:38:54.543Z,20.74
2023-03-24T14:41:44.531Z,20.37
2023-03-24T14:44:56.848Z,20.22
2023-03-24T14:47:45.541Z,20.09
2023-03-24T14:50:34.764Z,19.89
2023-03-24T14:53:23.660Z,19.87
2023-03-24T14:56:16.698Z,19.81
2023-03-24T14:59:17.565Z,19.35
2023-03-24T15:02:33.462Z,19.60
2023-03-24T15:05:32.662Z,19.55
2023-03-24T15:08:22.659Z,19.33
2023-03-24T15:11:11.841Z,19.19
2023-03-24T15:14:02.597Z,19.26
2023-03-24T15:17:07.430Z,19.15
2023-03-24T15:19:55.754Z,19.24
2023-03-24T15:22:43.414Z,19.11
2023-03-24T15:25:31.069Z,19.12
2023-03-24T15:28:24.830Z,19.13
2023-03-24T15:31:14.757Z,19.11
2023-03-24T15:34:35.973Z,19.11
2023-03-24T15:37:48.480Z,18.99
2023-03-24T15:40:39.657Z,18.72
2023-03-24T15:43:27.612Z,18.73
2023-03-24T15:46:30.526Z,18.79
2023-03-24T15:49:23.931Z,18.65
2023-03-24T15:52:23.510Z,18.58
2023-03-24T15:55:36.924Z,18.58
2023-03-24T15:58:28.636Z,18.52
2023-03-24T16:01:20.977Z,18.34
2023-03-24T16:04:15.990Z,18.39
2023-03-24T16:07:05.469Z,18.30
2023-03-24T16:10:05.227Z,18.24
2023-03-24T16:12:53.720Z,17.92
2023-03-24T16:15:56.842Z,17.87
2023-03-24T16:18:51.478Z,17.46
2023-03-24T16:21:39.087Z,17.68
2023-03-24T16:24:29.956Z,17.32
2023-03-24T16:27:17.892Z,17.24
2023-03-24T16:30:38.077Z,17.20
2023-03-24T16:33:33.018Z,16.97
2023-03-24T16:36:22.338Z,16.81
2023-03-24T16:39:21.830Z,16.68
2023-03-24T16:42:12.875Z,16.43
2023-03-24T16:45:00.533Z,16.20
2023-03-24T16:47:48.452Z,16.04
2023-03-24T16:50:45.615Z,15.47
2023-03-24T16:53:33.424Z,15.57
2023-03-24T16:56:23.168Z,15.49
2023-03-24T16:59:12.707Z,15.32
2023-03-24T17:02:06.208Z,15.17
2023-03-24T17:04:54.334Z,14.90
2023-03-24T17:07:43.023Z,14.67
2023-03-24T17:10:31.228Z,14.57
2023-03-24T17:13:21.995Z,14.48
2023-03-24T17:16:10.974Z,14.31
2023-03-24T17:18:58.758Z,14.19
2023-03-24T17:22:03.398Z,14.11
2023-03-24T17:24:57.767Z,13.94
2023-03-24T17:27:46.402Z,13.89
2023-03-24T17:30:34.195Z,13.70
2023-03-24T17:33:21.805Z,13.57
2023-03-24T17:36:17.230Z,13.47
2023-03-24T17:39:05.671Z,13.35
2023-03-24T17:41:57.754Z,13.39
2023-03-24T17:44:47.554Z,13.28
2023-03-24T17:47:35.682Z,13.10
2023-03-24T17:50:23.592Z,13.01
2023-03-24T17:53:13.903Z,12.99
2023-03-24T17:56:08.439Z,12.86
2023-03-24T17:58:58.898Z,12.70
2023-03-24T18:01:47.551Z,12.52
2023-03-24T18:04:35.271Z,12.26
2023-03-24T18:07:23.413Z,12.31
2023-03-24T18:10:11.356Z,12.11
2023-03-24T18:13:02.575Z,12.12
2023-03-24T18:15:50.412Z,12.02
2023-03-24T18:18:39.336Z,11.86
2023-03-24T18:21:26.998Z,11.89
2023-03-24T18:24:14.858Z,12.01
2023-03-24T18:27:04.003Z,11.86
2023-03-24T18:29:51.715Z,11.66
2023-03-24T18:32:40.500Z,11.54
2023-03-24T18:35:28.572Z,11.48
2023-03-24T18:38:22.236Z,11.41
2023-03-24T18:41:13.101Z,11.25
2023-03-24T18:44:01.025Z,11.09
2023-03-24T18:46:51.850Z,10.56
2023-03-24T18:49:42.575Z,11.15
2023-03-24T18:52:33.314Z,10.97
2023-03-24T18:55:22.071Z,10.82
2023-03-24T18:58:15.625Z,10.76
2023-03-24T19:01:12.463Z,10.79
2023-03-24T19:04:00.393Z,10.75
2023-03-24T19:06:50.551Z,10.42
2023-03-24T19:09:38.489Z,10.53
2023-03-24T19:12:26.427Z,10.59
2023-03-24T19:15:17.243Z,10.53
2023-03-24T19:18:05.107Z,10.51
2023-03-24T19:20:59.299Z,10.49
2023-03-24T19:23:47.286Z,10.41
2023-03-24T19:26:35.151Z,10.46
2023-03-24T19:29:22.820Z,10.24
2023-03-24T19:32:10.568Z,10.31
2023-03-24T19:34:58.319Z,10.24
2023-03-24T19:37:49.503Z,10.15
2023-03-24T19:40:37.297Z,10.11
2023-03-24T19:43:25.538Z,10.13
2023-03-24T19:46:13.255Z,9.95
2023-03-24T19:49:01.272Z,9.98
2023-03-24T19:51:51.157Z,9.86
2023-03-24T19:54:38.983Z,9.59
2023-03-24T19:57:27.543Z,9.49
2023-03-24T20:00:15.957Z,9.53
2023-03-24T20:03:03.725Z,9.60
2023-03-24T20:05:53.762Z,9.55
2023-03-24T20:08:41.603Z,9.66
2023-03-24T20:11:29.300Z,9.56
2023-03-24T20:14:18.640Z,9.52
2023-03-24T20:17:06.324Z,9.28
2023-03-24T20:19:54.497Z,9.22
2023-03-24T20:22:45.873Z,9.33
2023-03-24T20:25:33.572Z,9.22
2023-03-24T20:28:21.609Z,9.34
2023-03-24T20:31:11.156Z,9.07
2023-03-24T20:33:59.452Z,8.92
2023-03-24T20:36:47.095Z,8.93
2023-03-24T20:39:35.094Z,8.75
2023-03-24T20:42:25.411Z,8.82
2023-03-24T20:45:13.121Z,8.98
2023-03-24T20:48:00.784Z,8.85
2023-03-24T20:50:48.697Z,8.91
2023-03-24T20:53:36.923Z,8.89
2023-03-24T20:56:25.303Z,8.75
2023-03-24T20:59:14.007Z,8.84
2023-03-24T21:02:02.539Z,8.76
2023-03-24T21:04:50.162Z,8.77
2023-03-24T21:07:38.547Z,8.80
2023-03-24T21:10:26.244Z,8.64
2023-03-24T21:13:16.790Z,8.62
2023-03-24T21:16:09.774Z,8.60
2023-03-24T21:18:59.178Z,8.56
2023-03-24T21:21:49.720Z,8.52
2023-03-24T21:24:37.884Z,8.57
2023-03-24T21:27:36.655Z,8.49
2023-03-24T21:30:26.428Z,8.47
2023-03-24T21:33:17.076Z,8.43
2023-03-24T21:36:05.191Z,8.19
2023-03-24T21:38:54.335Z,8.18
2023-03-24T21:41:42.931Z,8.32
2023-03-24T21:44:30.662Z,8.26
2023-03-24T21:47:27.357Z,8.44
2023-03-24T21:50:19.310Z,8.25
2023-03-24T21:53:15.408Z,8.36
2023-03-24T21:56:06.117Z,8.22
2023-03-24T21:59:00.209Z,8.10
2023-03-24T22:01:47.952Z,8.27
2023-03-24T22:04:38.579Z,8.17
2023-03-24T22:07:26.198Z,7.96
2023-03-24T22:10:16.996Z,8.31
2023-03-24T22:13:05.224Z,8.07
2023-03-24T22:15:56.079Z,8.19
2023-03-24T22:18:43.775Z,8.48
2023-03-24T22:21:32.478Z,8.37
2023-03-24T22:24:20.079Z,8.27
2023-03-24T22:27:08.194Z,8.28
2023-03-24T22:29:55.973Z,8.14
2023-03-24T22:32:43.791Z,8.10
2023-03-24T22:35:31.696Z,8.02
2023-03-24T22:38:19.381Z,8.05
2023-03-24T22:41:10.981Z,7.96
2023-03-24T22:43:58.702Z,8.23
2023-03-24T22:46:46.431Z,7.97
2023-03-24T22:49:34.499Z,7.85
2023-03-24T22:52:22.116Z,7.77
2023-03-24T22:55:10.642Z,7.76
2023-03-24T22:58:00.824Z,7.74
2023-03-24T23:01:04.580Z,7.59
2023-03-24T23:03:55.228Z,7.49
2023-03-24T23:06:46.434Z,7.40
2023-03-24T23:09:34.481Z,7.43
2023-03-24T23:12:22.681Z,7.48
2023-03-24T23:15:14.337Z,7.23
2023-03-24T23:18:02.139Z,7.33
2023-03-24T23:20:50.254Z,7.35
2023-03-24T23:23:40.076Z,6.90
2023-03-24T23:26:30.233Z,7.13
2023-03-24T23:29:18.172Z,7.13
2023-03-24T23:32:06.872Z,7.09
2023-03-24T23:34:54.912Z,7.08
2023-03-24T23:37:42.963Z,7.11
2023-03-24T23:40:30.745Z,7.12
2023-03-24T23:43:18.368Z,7.12
2023-03-24T23:46:06.572Z,7.23
2023-03-24T23:48:54.469Z,7.05
2023-03-24T23:51:43.624Z,7.15
2023-03-24T23:54:32.458Z,7.10
2023-03-24T23:57:20.256Z,7.06
